This is the latest recevied weather packets stored in our database for station/object DO1BDB-12. If no packets are shown the sender has not sent any weather packets the latest 10 day(s).
| Time | Temp. | Humidity | Pressure | Rain* | Wind** | Luminosity | Snow |
|---|---|---|---|---|---|---|---|
| 1777530498 | 22.22° C | 28% | 103.3 hPa | - | - | - | - |
| 1777530432 | 20° C | 29% | 103.3 hPa | - | - | - | - |
| 1777530366 | 19.44° C | 32% | 103.3 hPa | - | - | - | - |
| 1777530301 | 20.56° C | 30% | 103.3 hPa | - | - | - | - |
| 1777530235 | 21.11° C | 28% | 103.3 hPa | - | - | - | - |
| 1777530169 | 23.33° C | 26% | 103.2 hPa | - | - | - | - |
| 1777530103 | 22.22° C | 28% | 103.3 hPa | - | - | - | - |
| 1777530037 | 23.89° C | 25% | 103.2 hPa | - | - | - | - |
| 1777529971 | 23.89° C | 25% | 103.2 hPa | - | - | - | - |
| 1777529905 | 23.33° C | 27% | 103.2 hPa | - | - | - | - |
| 1777529840 | 24.44° C | 26% | 103.2 hPa | - | - | - | - |
| 1777529774 | 26.11° C | 24% | 103.2 hPa | - | - | - | - |
| 1777529708 | 24.44° C | 27% | 103.2 hPa | - | - | - | - |
| 1777529642 | 20.56° C | 30% | 103.3 hPa | - | - | - | - |
| 1777529576 | 23.33° C | 27% | 103.3 hPa | - | - | - | - |
| 1777529510 | 22.78° C | 30% | 103.3 hPa | - | - | - | - |
| 1777529445 | 22.78° C | 29% | 103.3 hPa | - | - | - | - |
| 1777529379 | 19.44° C | 32% | 103.3 hPa | - | - | - | - |
| 1777529313 | 22.22° C | 29% | 103.3 hPa | - | - | - | - |
| 1777529247 | 20.56° C | 33% | 103.3 hPa | - | - | - | - |
| 1777529182 | 17.78° C | 35% | 103.3 hPa | - | - | - | - |
| 1777529115 | 22.22° C | 32% | 103.3 hPa | - | - | - | - |
| 1777529049 | 17.22° C | 36% | 103.3 hPa | - | - | - | - |
| 1777528984 | 18.33° C | 37% | 103.3 hPa | - | - | - | - |
| 1777528918 | 16.11° C | 40% | 103.3 hPa | - | - | - | - |
* Rain since midnight (hover to see other rain measurements)
** Current wind speed in m/s (hover to see current wind gust speed)